createdAt,value
2022-12-11T00:00:23.694Z,75.30
2022-12-11T00:05:49.460Z,77.00
2022-12-11T00:10:55.564Z,78.60
2022-12-11T00:16:01.445Z,71.20
2022-12-11T00:21:10.571Z,66.00
2022-12-11T00:26:16.948Z,71.90
2022-12-11T00:31:24.030Z,69.80
2022-12-11T00:36:29.971Z,63.50
2022-12-11T00:41:35.802Z,73.60
2022-12-11T00:46:41.616Z,69.00
2022-12-11T00:51:47.312Z,70.10
2022-12-11T00:56:55.172Z,61.80
2022-12-11T01:02:00.837Z,58.70
2022-12-11T01:07:06.589Z,58.90
2022-12-11T01:12:12.961Z,60.40
2022-12-11T01:17:18.829Z,62.80
2022-12-11T01:22:25.322Z,59.60
2022-12-11T01:27:31.668Z,53.90
2022-12-11T01:32:37.940Z,57.60
2022-12-11T01:37:43.997Z,59.30
2022-12-11T01:42:49.968Z,57.40
2022-12-11T01:48:00.479Z,52.00
2022-12-11T01:53:10.641Z,53.00
2022-12-11T01:58:18.624Z,48.60
2022-12-11T02:03:24.876Z,45.20
2022-12-11T02:08:31.381Z,48.50
2022-12-11T02:13:45.962Z,45.80
2022-12-11T02:19:00.524Z,49.50
2022-12-11T02:24:32.577Z,50.70
2022-12-11T02:29:45.502Z,43.60
2022-12-11T02:34:58.491Z,48.00
2022-12-11T02:40:08.199Z,51.20
2022-12-11T02:45:16.644Z,56.10
2022-12-11T02:50:23.991Z,51.30
2022-12-11T02:55:32.691Z,52.40
2022-12-11T03:00:38.381Z,49.70
2022-12-11T03:05:46.225Z,50.50
2022-12-11T03:10:52.005Z,49.00
2022-12-11T03:16:12.274Z,49.40
2022-12-11T03:21:24.650Z,45.80
2022-12-11T03:26:56.642Z,47.60
2022-12-11T03:32:08.952Z,48.10
2022-12-11T03:37:16.212Z,53.20
2022-12-11T03:42:24.383Z,53.10
2022-12-11T03:47:31.332Z,43.60
2022-12-11T03:52:45.579Z,44.30
2022-12-11T03:57:51.974Z,46.00
2022-12-11T04:03:13.831Z,44.00
2022-12-11T04:08:22.154Z,42.00
2022-12-11T04:13:27.856Z,47.10
2022-12-11T04:18:52.468Z,50.00
2022-12-11T04:24:16.731Z,49.80
2022-12-11T04:29:22.555Z,53.10
2022-12-11T04:34:28.477Z,49.20
2022-12-11T04:39:34.360Z,47.90
2022-12-11T04:44:40.137Z,47.10
2022-12-11T04:49:45.998Z,62.70
2022-12-11T04:54:51.831Z,49.40
2022-12-11T04:59:57.456Z,45.40
2022-12-11T05:05:03.669Z,47.90
2022-12-11T05:10:10.835Z,54.80
2022-12-11T05:15:16.989Z,46.30
2022-12-11T05:20:22.661Z,43.00
2022-12-11T05:25:28.413Z,39.80
2022-12-11T05:30:34.345Z,43.90
2022-12-11T05:35:46.297Z,36.00
2022-12-11T05:40:59.176Z,37.20
2022-12-11T05:46:10.588Z,35.30
2022-12-11T05:51:17.600Z,32.10
2022-12-11T05:56:25.084Z,33.50
2022-12-11T06:01:33.338Z,30.40
2022-12-11T06:06:40.475Z,26.90
2022-12-11T06:11:46.211Z,28.70
2022-12-11T06:16:52.024Z,33.50
2022-12-11T06:21:57.810Z,30.70
2022-12-11T06:27:04.038Z,35.30
2022-12-11T06:32:10.444Z,30.00
2022-12-11T06:37:16.609Z,34.80
2022-12-11T06:42:22.801Z,33.10
2022-12-11T06:47:30.915Z,25.70
2022-12-11T06:52:37.307Z,29.40
2022-12-11T06:57:43.324Z,33.80
2022-12-11T07:02:50.545Z,28.20
2022-12-11T07:07:56.782Z,29.10
2022-12-11T07:13:02.611Z,27.10
2022-12-11T07:18:08.207Z,30.00
2022-12-11T07:23:13.983Z,30.70
2022-12-11T07:28:19.749Z,31.80
2022-12-11T07:33:25.339Z,30.20
2022-12-11T07:38:31.016Z,31.20
2022-12-11T07:43:37.518Z,33.00
2022-12-11T07:48:46.581Z,35.00
2022-12-11T07:53:52.595Z,50.70
2022-12-11T07:59:01.693Z,54.20
2022-12-11T08:04:10.041Z,42.50
2022-12-11T08:09:21.136Z,44.50
2022-12-11T08:14:27.333Z,41.60
2022-12-11T08:19:33.513Z,33.90
2022-12-11T08:24:39.536Z,38.20
2022-12-11T08:29:46.754Z,36.20
2022-12-11T08:34:53.805Z,31.70
2022-12-11T08:39:59.498Z,34.00
2022-12-11T08:45:06.590Z,38.00
2022-12-11T08:50:13.592Z,38.50
2022-12-11T08:55:19.572Z,36.70
2022-12-11T09:00:25.576Z,35.20
2022-12-11T09:05:31.436Z,38.20
2022-12-11T09:10:37.410Z,45.10
2022-12-11T09:15:43.650Z,33.30
2022-12-11T09:20:57.706Z,31.90
2022-12-11T09:26:06.185Z,28.50
2022-12-11T09:31:14.723Z,38.60
2022-12-11T09:36:20.471Z,35.00
2022-12-11T09:41:36.724Z,51.90
2022-12-11T09:46:43.732Z,40.50
2022-12-11T09:51:58.132Z,27.90
2022-12-11T09:57:15.455Z,31.70
2022-12-11T10:02:34.542Z,36.80
2022-12-11T10:07:47.641Z,39.20
2022-12-11T10:13:04.591Z,34.40
2022-12-11T10:18:17.362Z,29.50
2022-12-11T10:23:28.418Z,33.60
2022-12-11T10:28:35.174Z,31.80
2022-12-11T10:33:50.151Z,31.60
2022-12-11T10:38:56.452Z,29.50
2022-12-11T10:44:13.968Z,27.00
2022-12-11T10:49:25.777Z,24.50
2022-12-11T10:54:38.279Z,31.40
2022-12-11T10:59:48.352Z,30.30
2022-12-11T11:04:55.940Z,26.10
2022-12-11T11:10:18.583Z,30.50
2022-12-11T11:15:28.455Z,20.60
2022-12-11T11:20:36.073Z,19.90
2022-12-11T11:25:50.974Z,23.90
2022-12-11T11:31:01.989Z,18.40
2022-12-11T11:36:20.279Z,24.30
2022-12-11T11:41:29.481Z,32.30
2022-12-11T11:46:38.898Z,22.70
2022-12-11T11:51:51.740Z,20.80
2022-12-11T11:56:59.129Z,17.80
2022-12-11T12:02:15.434Z,22.60
2022-12-11T12:07:35.526Z,24.00
2022-12-11T12:12:50.772Z,26.10
2022-12-11T12:18:02.148Z,20.80
2022-12-11T12:23:34.915Z,21.10
2022-12-11T12:28:52.877Z,20.50
2022-12-11T12:34:06.757Z,25.00
2022-12-11T12:39:24.824Z,25.40
2022-12-11T12:44:37.955Z,20.40
2022-12-11T12:49:45.905Z,26.10
2022-12-11T12:55:14.552Z,25.40
2022-12-11T13:00:38.898Z,28.10
2022-12-11T13:05:55.674Z,25.20
2022-12-11T13:11:05.347Z,28.10
2022-12-11T13:16:34.957Z,34.90
2022-12-11T13:21:40.976Z,26.20
2022-12-11T13:26:47.545Z,27.00
2022-12-11T13:31:59.717Z,23.10
2022-12-11T13:37:07.433Z,20.00
2022-12-11T13:42:26.157Z,23.40
2022-12-11T13:47:33.203Z,23.30
2022-12-11T13:52:39.154Z,26.90
2022-12-11T13:57:47.495Z,25.30
2022-12-11T14:02:55.041Z,21.90
2022-12-11T14:08:09.057Z,34.90
2022-12-11T14:13:22.147Z,27.80
2022-12-11T14:18:30.569Z,28.00
2022-12-11T14:23:37.793Z,24.50
2022-12-11T14:28:45.192Z,19.70
2022-12-11T14:33:54.200Z,24.80
2022-12-11T14:39:04.961Z,22.60
2022-12-11T14:49:25.274Z,19.70
2022-12-11T14:54:35.723Z,18.30
2022-12-11T14:59:47.283Z,17.40
2022-12-11T15:05:05.172Z,21.60
2022-12-11T15:10:25.693Z,25.60
2022-12-11T15:15:33.824Z,25.90
2022-12-11T15:20:39.883Z,22.70
2022-12-11T15:25:52.737Z,21.00
2022-12-11T15:31:00.773Z,22.80
2022-12-11T15:36:21.709Z,26.60
2022-12-11T15:41:33.183Z,30.50
2022-12-11T15:46:39.025Z,25.00
2022-12-11T15:51:44.857Z,21.90
2022-12-11T15:56:50.837Z,25.80
2022-12-11T16:01:56.753Z,25.20
2022-12-11T16:07:02.424Z,26.10
2022-12-11T16:12:09.414Z,23.60
2022-12-11T16:17:16.399Z,21.80
2022-12-11T16:22:22.205Z,20.80
2022-12-11T16:27:28.155Z,25.30
2022-12-11T16:32:34.479Z,21.70
2022-12-11T16:37:40.466Z,27.60
2022-12-11T16:42:46.890Z,27.90
2022-12-11T16:47:53.578Z,28.00
2022-12-11T16:53:00.055Z,20.20
2022-12-11T16:58:06.112Z,20.10
2022-12-11T17:03:11.884Z,25.00
2022-12-11T17:08:17.752Z,25.90
2022-12-11T17:13:23.562Z,27.90
2022-12-11T17:18:29.532Z,28.00
2022-12-11T17:23:35.347Z,27.80
2022-12-11T17:28:41.303Z,31.70
2022-12-11T17:33:48.278Z,27.10
2022-12-11T17:38:54.222Z,24.10
2022-12-11T17:43:59.971Z,23.30
2022-12-11T17:49:06.351Z,25.00
2022-12-11T17:54:12.115Z,24.10
2022-12-11T17:59:18.309Z,25.90
2022-12-11T18:04:24.419Z,25.10
2022-12-11T18:09:30.352Z,27.80
2022-12-11T18:14:37.554Z,23.10
2022-12-11T18:19:46.284Z,24.30
2022-12-11T18:24:52.908Z,22.60
2022-12-11T18:29:58.841Z,26.30
2022-12-11T18:35:05.624Z,23.80
2022-12-11T18:40:12.642Z,20.60
2022-12-11T18:45:18.345Z,26.10
2022-12-11T18:50:24.116Z,25.90
2022-12-11T18:55:29.825Z,26.80
2022-12-11T19:00:37.400Z,22.10
2022-12-11T19:05:44.012Z,23.60
2022-12-11T19:10:49.870Z,25.70
2022-12-11T19:15:55.814Z,22.40
2022-12-11T19:21:08.525Z,20.10
2022-12-11T19:26:18.241Z,22.50
2022-12-11T19:31:24.889Z,21.20
2022-12-11T19:36:35.217Z,22.60
2022-12-11T19:41:42.876Z,23.10
2022-12-11T19:46:48.786Z,27.20
2022-12-11T19:51:54.884Z,24.90
2022-12-11T19:57:00.555Z,25.00
2022-12-11T20:02:06.523Z,30.50
2022-12-11T20:07:12.409Z,30.10
2022-12-11T20:12:18.290Z,27.70
2022-12-11T20:17:24.342Z,25.50
2022-12-11T20:22:30.312Z,27.20
2022-12-11T20:27:37.475Z,30.00
2022-12-11T20:32:43.636Z,25.00
2022-12-11T20:37:49.508Z,25.10
2022-12-11T20:42:55.329Z,28.10
2022-12-11T20:48:01.269Z,31.20
2022-12-11T20:53:07.106Z,26.50
2022-12-11T20:58:12.898Z,21.80
2022-12-11T21:03:18.922Z,21.30
2022-12-11T21:08:24.864Z,24.20
2022-12-11T21:13:31.223Z,25.00
2022-12-11T21:18:37.306Z,23.30
2022-12-11T21:23:43.376Z,22.50
2022-12-11T21:28:52.162Z,18.40
2022-12-11T21:33:58.055Z,20.20
2022-12-11T21:39:04.559Z,15.90
2022-12-11T21:49:38.807Z,21.10
2022-12-11T21:54:44.445Z,18.70
2022-12-11T21:59:50.137Z,21.60
2022-12-11T22:04:55.865Z,19.30
2022-12-11T22:10:01.808Z,23.60
2022-12-11T22:15:10.025Z,21.60
2022-12-11T22:20:15.991Z,16.80
2022-12-11T22:25:21.904Z,22.40
2022-12-11T22:30:27.773Z,21.20
2022-12-11T22:35:33.572Z,21.10
2022-12-11T22:40:42.505Z,21.30
2022-12-11T22:45:48.165Z,23.50
2022-12-11T22:50:56.031Z,28.60
2022-12-11T22:56:05.952Z,23.10
2022-12-11T23:01:15.363Z,23.60
2022-12-11T23:06:24.972Z,27.50
2022-12-11T23:11:34.910Z,30.10
2022-12-11T23:16:41.079Z,23.70
2022-12-11T23:21:46.891Z,23.00
2022-12-11T23:26:52.558Z,25.20
2022-12-11T23:31:59.399Z,27.40
2022-12-11T23:37:05.553Z,24.70
2022-12-11T23:42:11.261Z,23.80
2022-12-11T23:47:16.972Z,26.30
2022-12-11T23:52:23.107Z,26.40
2022-12-11T23:57:30.287Z,27.40
